首页
METAR-TAF:

METAR-TAF

机场 :

Buffalo Narrows, 曼尼托巴, 加拿大

纬度: 55-50N, 经度: 108-27W, 海拔: 434米

当前天气观测

该预报发布于16分钟前的19:00 UTC
风速4节,风向北转西北,在西北北转东北之间变化
温度 6°C
湿度 61%
气压 1005 hPa
能見度: 14.5公里
少量云层高于6600英尺
散云层高于11000英尺

METAR: CYVT 101900Z AUTO 34004KT 310V030 9SM FEW066 SCT110 06/M01 A2968 RMK SLP073

时间: 14:16 (19:16 UTC)

预报

该预报发布于5小时和38分钟前的13:38 UTC
预报有效从10日的 14点(UTC)到 11日的 02点(UTC)
风速6节,风向东南
能見度: 10公里
多云层高于7000英尺
从 10日的 1600点(UTC)
风速8节,风向东转东南
能見度: 10公里
多云层高于6000英尺
短暂存在
从 10日的 16点(UTC)到 10日的 22点(UTC)
能見度: 8.0公里
阴天层高于4000英尺
小阵雨, 雪, 轻雾
成为
从 10日的 18点(UTC)到 10日的 20点(UTC)
风速8节,风向东北
从 10日的 2200点(UTC)
风速10节,风向东北
能見度: 10公里
多云层高于8000英尺
短暂存在
从 10日的 22点(UTC)到 11日的 02点(UTC)
能見度: 10公里
附近有阵雨

TAF: CYVT 101338Z 1014/1102 14006KT P6SM BKN070 FM101600 12008KT P6SM BKN060 TEMPO 1016/1022 5SM -SHRASN BR OVC040 BECMG 1018/1020 04008KT FM102200 04010KT P6SM BKN080 TEMPO 1022/1102 P6SM VCSH RMK FCST BASED ON AUTO OBS. NXT FCST BY 102100Z

超过4000个机场的气象观测和天气预报(METAR&TAF报告)。

可查询的气象台以黄色和红色小点在地图上表示。

将鼠标移到小点上方,可查看气象台名称。

然后点击查看天气观测和预报。

如需切换地图:点击带黑十字的绿色按钮放大地图;点击带横线的绿色按钮缩小地图;或者点击绿色箭头查看邻近地区的地图。


METAR-TAF: